Time;durP1;ratioP1;P1;durP2;ratioP2;P2;SDS_P1;SDS_P2;PMS_P1;PMS_P2;Temp;Humidity;BMP_temperature;BMP_pressure;BME280_temperature;BME280_humidity;BME280_pressure;Samples;Min_cycle;Max_cycle;Signal;HPM_P1;HPM_P2
2023/07/23 00:00:27;;;;;;;2.13;1.65;;;;;;;;;;5073508;28;20052;-82
2023/07/23 00:02:52;;;;;;;3.80;2.10;;;;;;;;;;5073410;28;20032;-82
2023/07/23 00:05:18;;;;;;;3.40;2.00;;;;;;;;;;5074611;28;20047;-82
2023/07/23 00:07:44;;;;;;;3.72;2.50;;;;;;;;;;5073036;28;20041;-81
2023/07/23 00:10:09;;;;;;;3.60;2.30;;;;;;;;;;5056370;28;20478;-82
2023/07/23 00:12:35;;;;;;;4.75;2.00;;;;;;;;;;5074110;28;20033;-81
2023/07/23 00:15:04;;;;;;;4.40;1.90;;;;;;;;;;5073151;28;20028;-82
2023/07/23 00:17:29;;;;;;;2.03;1.80;;;;;;;;;;5056358;28;20124;-82
2023/07/23 00:19:55;;;;;;;5.97;2.20;;;;;;;;;;5074216;28;20119;-82
2023/07/23 00:22:20;;;;;;;2.60;2.30;;;;;;;;;;5073990;28;20037;-82
2023/07/23 00:24:46;;;;;;;3.65;2.13;;;;;;;;;;5072773;28;20463;-81
2023/07/23 00:27:13;;;;;;;3.08;2.17;;;;;;;;;;5073896;28;20459;-81
2023/07/23 00:29:42;;;;;;;3.83;2.47;;;;;;;;;;5074170;28;20395;-81
2023/07/23 00:32:08;;;;;;;3.05;2.28;;;;;;;;;;5055984;28;20039;-81
2023/07/23 00:34:33;;;;;;;3.65;2.22;;;;;;;;;;5072865;28;20403;-81
2023/07/23 00:36:58;;;;;;;2.83;2.30;;;;;;;;;;5072565;28;20446;-82
2023/07/23 00:39:24;;;;;;;3.20;2.38;;;;;;;;;;5072458;28;20606;-81
2023/07/23 00:41:50;;;;;;;2.78;2.30;;;;;;;;;;5073072;28;20033;-81
2023/07/23 00:44:16;;;;;;;3.63;2.60;;;;;;;;;;5072803;28;20391;-81
2023/07/23 00:46:42;;;;;;;3.60;2.50;;;;;;;;;;5072985;28;20100;-81
2023/07/23 00:49:07;;;;;;;4.75;2.55;;;;;;;;;;5072423;28;20515;-81
2023/07/23 00:51:33;;;;;;;3.97;2.55;;;;;;;;;;5072419;28;20032;-81
2023/07/23 00:53:59;;;;;;;3.33;2.60;;;;;;;;;;5073607;28;20036;-81
2023/07/23 00:56:24;;;;;;;5.30;2.80;;;;;;;;;;5073808;28;20116;-82
2023/07/23 00:58:49;;;;;;;3.72;2.40;;;;;;;;;;5072805;28;20430;-82
2023/07/23 01:01:15;;;;;;;4.90;3.10;;;;;;;;;;5073435;28;20436;-81
2023/07/23 01:03:40;;;;;;;3.78;2.83;;;;;;;;;;5073482;28;20108;-81
2023/07/23 01:06:06;;;;;;;3.92;2.67;;;;;;;;;;5071551;28;20102;-81
2023/07/23 01:08:33;;;;;;;5.20;2.88;;;;;;;;;;5073622;28;20352;-81
2023/07/23 01:11:01;;;;;;;3.25;2.50;;;;;;;;;;5072155;28;20028;-81
2023/07/23 01:13:26;;;;;;;4.20;2.60;;;;;;;;;;5072130;28;20031;-81
2023/07/23 01:15:52;;;;;;;3.70;2.80;;;;;;;;;;5073571;28;20029;-81
2023/07/23 01:18:18;;;;;;;3.85;2.72;;;;;;;;;;5055395;28;20029;-81
2023/07/23 01:20:43;;;;;;;3.97;2.90;;;;;;;;;;5073479;28;20383;-81
2023/07/23 01:23:09;;;;;;;3.78;2.72;;;;;;;;;;5073276;28;20107;-81
2023/07/23 01:25:34;;;;;;;3.30;2.20;;;;;;;;;;5055259;28;20028;-81
2023/07/23 01:27:59;;;;;;;6.20;2.63;;;;;;;;;;5072331;28;20020;-81
2023/07/23 01:30:25;;;;;;;3.83;2.55;;;;;;;;;;5073451;28;20029;-81
2023/07/23 01:32:50;;;;;;;3.33;2.78;;;;;;;;;;5073449;28;20024;-81
2023/07/23 01:35:17;;;;;;;3.00;2.20;;;;;;;;;;5055183;28;20058;-81
2023/07/23 01:37:44;;;;;;;3.92;2.20;;;;;;;;;;5071900;28;20078;-82
2023/07/23 01:40:10;;;;;;;6.00;2.65;;;;;;;;;;5071890;28;20127;-81
2023/07/23 01:42:35;;;;;;;3.67;2.60;;;;;;;;;;5072096;28;20071;-81
2023/07/23 01:45:03;;;;;;;5.22;2.92;;;;;;;;;;5071877;28;20040;-82
2023/07/23 01:47:28;;;;;;;4.22;2.35;;;;;;;;;;5055028;28;20036;-81
2023/07/23 01:49:54;;;;;;;4.15;2.47;;;;;;;;;;5071703;28;20039;-82
2023/07/23 01:52:19;;;;;;;2.85;2.45;;;;;;;;;;5071848;28;20047;-82
2023/07/23 01:54:44;;;;;;;4.05;2.40;;;;;;;;;;5088816;28;20107;-82
2023/07/23 01:57:10;;;;;;;4.05;2.70;;;;;;;;;;5071867;28;20118;-82
2023/07/23 01:59:35;;;;;;;3.33;2.25;;;;;;;;;;5072886;28;20029;-82
2023/07/23 02:02:00;;;;;;;4.88;2.28;;;;;;;;;;5072931;28;20032;-82
2023/07/23 02:04:26;;;;;;;2.70;2.50;;;;;;;;;;5073218;28;20025;-82
2023/07/23 02:06:51;;;;;;;3.55;2.65;;;;;;;;;;5072705;28;20052;-82
2023/07/23 02:09:17;;;;;;;4.05;3.10;;;;;;;;;;5073438;28;20044;-81
2023/07/23 02:11:42;;;;;;;3.90;2.42;;;;;;;;;;5072809;28;20131;-81
2023/07/23 02:14:08;;;;;;;3.70;2.80;;;;;;;;;;5072751;28;20033;-82
2023/07/23 02:16:34;;;;;;;3.72;2.42;;;;;;;;;;5072698;28;20094;-82
2023/07/23 02:18:59;;;;;;;2.60;1.90;;;;;;;;;;5074304;28;20475;-82
2023/07/23 02:21:25;;;;;;;4.93;2.80;;;;;;;;;;5058570;28;20481;-81
2023/07/23 02:23:50;;;;;;;4.28;2.60;;;;;;;;;;5076751;28;20028;-81
2023/07/23 02:26:16;;;;;;;4.82;2.42;;;;;;;;;;5076301;28;20078;-81
2023/07/23 02:28:43;;;;;;;4.53;2.78;;;;;;;;;;5076578;28;20040;-81
2023/07/23 02:31:09;;;;;;;3.13;2.40;;;;;;;;;;5076247;28;20471;-81
2023/07/23 02:33:35;;;;;;;3.40;2.58;;;;;;;;;;5075538;28;20036;-82
2023/07/23 02:36:01;;;;;;;3.25;2.72;;;;;;;;;;5058144;28;20166;-81
2023/07/23 02:38:27;;;;;;;4.80;3.08;;;;;;;;;;5075071;28;20016;-81
2023/07/23 02:40:56;;;;;;;3.92;2.72;;;;;;;;;;5074779;28;20024;-81
2023/07/23 02:43:22;;;;;;;2.92;2.35;;;;;;;;;;5075963;28;20029;-81
2023/07/23 02:45:47;;;;;;;3.78;2.70;;;;;;;;;;5075066;28;20031;-82
2023/07/23 02:48:12;;;;;;;3.13;2.42;;;;;;;;;;5077243;28;20464;-82
2023/07/23 02:50:39;;;;;;;4.60;2.50;;;;;;;;;;5076995;28;20064;-81
2023/07/23 02:53:05;;;;;;;3.70;2.88;;;;;;;;;;5058131;28;20025;-81
2023/07/23 02:55:30;;;;;;;4.35;2.75;;;;;;;;;;5076427;28;20049;-81
2023/07/23 02:57:56;;;;;;;6.05;2.95;;;;;;;;;;5057751;28;20112;-81
2023/07/23 03:00:22;;;;;;;4.45;2.13;;;;;;;;;;5075816;28;20504;-81
2023/07/23 03:02:48;;;;;;;4.32;2.40;;;;;;;;;;5074464;28;20493;-81
2023/07/23 03:05:13;;;;;;;4.70;3.00;;;;;;;;;;5057459;28;20048;-82
2023/07/23 03:07:39;;;;;;;5.35;2.67;;;;;;;;;;5074288;28;20034;-81
2023/07/23 03:10:05;;;;;;;4.70;2.42;;;;;;;;;;5075423;28;20052;-81
2023/07/23 03:12:32;;;;;;;4.32;3.00;;;;;;;;;;5074470;28;20036;-81
2023/07/23 03:14:57;;;;;;;4.15;2.67;;;;;;;;;;5057371;28;20024;-81
2023/07/23 03:17:23;;;;;;;4.28;2.45;;;;;;;;;;5075705;28;20135;-81
2023/07/23 03:19:48;;;;;;;3.60;2.95;;;;;;;;;;5074841;28;20398;-81
2023/07/23 03:22:13;;;;;;;5.15;2.60;;;;;;;;;;5076429;28;20602;-81
2023/07/23 03:24:39;;;;;;;3.95;2.60;;;;;;;;;;5075758;28;20028;-81
2023/07/23 03:27:05;;;;;;;5.18;2.47;;;;;;;;;;5076545;28;20033;-81
2023/07/23 03:29:30;;;;;;;3.45;2.10;;;;;;;;;;5075600;28;20036;-82
2023/07/23 03:31:56;;;;;;;4.55;2.65;;;;;;;;;;5075126;28;20078;-81
2023/07/23 03:34:21;;;;;;;4.32;2.78;;;;;;;;;;5075304;28;20085;-81
2023/07/23 03:36:46;;;;;;;5.38;3.20;;;;;;;;;;5075046;28;20027;-81
2023/07/23 03:39:16;;;;;;;5.38;2.67;;;;;;;;;;5056996;28;20036;-81
2023/07/23 03:41:42;;;;;;;4.90;2.72;;;;;;;;;;5074804;28;20505;-82
2023/07/23 03:44:07;;;;;;;2.90;2.42;;;;;;;;;;5074824;28;20029;-82
2023/07/23 03:46:33;;;;;;;6.20;2.63;;;;;;;;;;5075078;28;20040;-82
2023/07/23 03:48:58;;;;;;;3.78;2.65;;;;;;;;;;5074736;28;20061;-82
2023/07/23 03:51:23;;;;;;;3.50;2.70;;;;;;;;;;5073557;28;20032;-81
2023/07/23 03:53:49;;;;;;;4.90;2.65;;;;;;;;;;5074673;28;20170;-81
2023/07/23 03:56:14;;;;;;;6.55;2.70;;;;;;;;;;5073188;28;20028;-81
2023/07/23 03:58:39;;;;;;;3.20;2.30;;;;;;;;;;5073348;28;20033;-81
2023/07/23 04:01:05;;;;;;;2.90;2.50;;;;;;;;;;5074398;28;20087;-81
2023/07/23 04:03:30;;;;;;;3.35;2.60;;;;;;;;;;5072993;28;20065;-81
2023/07/23 04:05:56;;;;;;;3.13;2.05;;;;;;;;;;5073996;28;20407;-81
2023/07/23 04:08:21;;;;;;;4.75;2.47;;;;;;;;;;5074293;28;20032;-81
2023/07/23 04:10:47;;;;;;;2.55;2.00;;;;;;;;;;5074336;28;20054;-81
2023/07/23 04:13:12;;;;;;;4.38;2.40;;;;;;;;;;5074005;28;20032;-82
2023/07/23 04:15:37;;;;;;;3.35;2.80;;;;;;;;;;5074365;28;20061;-82
2023/07/23 04:18:11;;;;;;;2.97;2.22;;;;;;;;;;5072644;28;20033;-81
2023/07/23 04:20:36;;;;;;;3.70;2.20;;;;;;;;;;5074594;28;20028;-81
2023/07/23 04:23:02;;;;;;;3.10;2.38;;;;;;;;;;5074430;28;20036;-82
2023/07/23 04:25:27;;;;;;;3.13;2.10;;;;;;;;;;5055854;28;20093;-81
2023/07/23 04:27:52;;;;;;;2.60;1.90;;;;;;;;;;5072592;28;20032;-82
2023/07/23 04:30:18;;;;;;;3.80;2.10;;;;;;;;;;5073983;28;20384;-82
2023/07/23 04:32:43;;;;;;;2.90;2.20;;;;;;;;;;5072965;28;20133;-82
2023/07/23 04:35:08;;;;;;;2.75;2.20;;;;;;;;;;5074241;28;20033;-82
2023/07/23 04:37:34;;;;;;;4.72;1.92;;;;;;;;;;5074049;28;20024;-82
2023/07/23 04:39:59;;;;;;;2.67;1.90;;;;;;;;;;5055907;28;20064;-81
2023/07/23 04:42:25;;;;;;;2.45;1.92;;;;;;;;;;5055032;28;20056;-81
2023/07/23 04:44:50;;;;;;;3.05;2.08;;;;;;;;;;5073255;28;20094;-81
2023/07/23 04:47:15;;;;;;;2.72;2.17;;;;;;;;;;5073873;28;20028;-82
2023/07/23 04:49:41;;;;;;;3.28;2.05;;;;;;;;;;5074599;28;20036;-82
2023/07/23 04:52:06;;;;;;;2.33;2.03;;;;;;;;;;5073975;28;20487;-82
2023/07/23 04:54:31;;;;;;;3.05;2.10;;;;;;;;;;5073827;28;20145;-81
2023/07/23 04:56:57;;;;;;;2.78;2.08;;;;;;;;;;5074966;28;20486;-81
2023/07/23 04:59:22;;;;;;;2.15;1.95;;;;;;;;;;5076573;28;20067;-82
2023/07/23 05:01:48;;;;;;;3.58;2.10;;;;;;;;;;5072296;28;20043;-81
2023/07/23 05:04:13;;;;;;;2.80;2.13;;;;;;;;;;5073800;28;20052;-81
2023/07/23 05:06:38;;;;;;;3.22;2.20;;;;;;;;;;5073469;28;20056;-81
2023/07/23 05:09:04;;;;;;;2.40;1.77;;;;;;;;;;5072294;28;20025;-82
2023/07/23 05:11:29;;;;;;;4.05;2.20;;;;;;;;;;5072507;28;20101;-82
2023/07/23 05:13:54;;;;;;;2.35;1.88;;;;;;;;;;5072080;28;20032;-82
2023/07/23 05:16:20;;;;;;;2.65;2.28;;;;;;;;;;5073938;28;20043;-81
2023/07/23 05:18:45;;;;;;;2.88;2.22;;;;;;;;;;5072839;28;20458;-82
2023/07/23 05:21:11;;;;;;;3.75;2.17;;;;;;;;;;5073772;28;20070;-82
2023/07/23 05:23:37;;;;;;;3.10;1.90;;;;;;;;;;5074738;28;20086;-82
2023/07/23 05:26:02;;;;;;;4.35;1.90;;;;;;;;;;5074385;28;20029;-82
2023/07/23 05:28:28;;;;;;;3.58;1.92;;;;;;;;;;5074079;28;20541;-81
2023/07/23 05:30:58;;;;;;;2.92;1.77;;;;;;;;;;5074305;28;20028;-81
2023/07/23 05:33:23;;;;;;;2.83;2.10;;;;;;;;;;5073130;28;20028;-81
2023/07/23 05:35:49;;;;;;;3.45;2.47;;;;;;;;;;5056902;28;20020;-81
2023/07/23 05:38:14;;;;;;;2.72;2.13;;;;;;;;;;5055543;28;20155;-81
2023/07/23 05:40:40;;;;;;;2.88;2.13;;;;;;;;;;5055434;28;20087;-81
2023/07/23 05:43:13;;;;;;;2.22;2.03;;;;;;;;;;5072350;28;20033;-81
2023/07/23 05:45:38;;;;;;;2.53;2.17;;;;;;;;;;5055413;28;20398;-81
2023/07/23 05:48:04;;;;;;;2.22;1.95;;;;;;;;;;5073363;28;20028;-82
2023/07/23 05:50:29;;;;;;;2.03;1.67;;;;;;;;;;5055303;28;20033;-82
2023/07/23 05:52:55;;;;;;;2.90;1.90;;;;;;;;;;5073389;28;20028;-82
2023/07/23 05:55:20;;;;;;;2.15;1.95;;;;;;;;;;5076806;28;20116;-82
2023/07/23 05:57:45;;;;;;;2.75;2.00;;;;;;;;;;5092327;28;20115;-82
2023/07/23 06:00:11;;;;;;;4.22;2.00;;;;;;;;;;5077173;28;20090;-82
2023/07/23 06:02:36;;;;;;;2.35;1.98;;;;;;;;;;5076986;28;20033;-82
2023/07/23 06:05:03;;;;;;;2.00;1.80;;;;;;;;;;5075250;28;20399;-82
2023/07/23 06:07:28;;;;;;;3.25;2.00;;;;;;;;;;5076659;28;20050;-82
2023/07/23 06:09:54;;;;;;;3.20;1.88;;;;;;;;;;5075457;28;20437;-82
2023/07/23 06:12:19;;;;;;;2.58;2.30;;;;;;;;;;5076733;28;20425;-81
2023/07/23 06:14:45;;;;;;;3.10;1.88;;;;;;;;;;5058532;28;20047;-82
2023/07/23 06:17:10;;;;;;;2.13;1.92;;;;;;;;;;5075079;28;20025;-82
2023/07/23 06:19:36;;;;;;;2.40;2.10;;;;;;;;;;5076643;28;20037;-84
2023/07/23 06:22:01;;;;;;;4.43;2.13;;;;;;;;;;5075097;28;20028;-82
2023/07/23 06:24:27;;;;;;;2.47;2.20;;;;;;;;;;5058463;28;20498;-81
2023/07/23 06:26:52;;;;;;;3.45;1.85;;;;;;;;;;5075364;28;20032;-82
2023/07/23 06:29:17;;;;;;;8.02;2.17;;;;;;;;;;5074522;28;20430;-82
2023/07/23 06:31:43;;;;;;;3.15;2.05;;;;;;;;;;5074773;28;20063;-86
2023/07/23 06:34:09;;;;;;;2.92;2.13;;;;;;;;;;5074372;28;20020;-84
2023/07/23 06:36:34;;;;;;;4.55;2.30;;;;;;;;;;5057678;28;20078;-83
2023/07/23 06:39:00;;;;;;;4.45;2.38;;;;;;;;;;5075332;28;20479;-83
2023/07/23 06:41:27;;;;;;;5.07;2.38;;;;;;;;;;5075245;28;20028;-83
2023/07/23 06:43:53;;;;;;;6.32;2.25;;;;;;;;;;5057824;28;20028;-82
2023/07/23 06:46:20;;;;;;;3.22;2.10;;;;;;;;;;5057382;28;20035;-81
2023/07/23 06:48:46;;;;;;;4.97;2.10;;;;;;;;;;5074038;28;20029;-82
2023/07/23 06:51:11;;;;;;;9.38;2.50;;;;;;;;;;5057637;28;20040;-82
2023/07/23 06:53:37;;;;;;;5.25;2.30;;;;;;;;;;5073954;28;20033;-81
2023/07/23 06:56:05;;;;;;;2.75;2.05;;;;;;;;;;5075194;28;20013;-82
2023/07/23 06:58:34;;;;;;;7.13;2.53;;;;;;;;;;5073730;28;20471;-83
2023/07/23 07:00:59;;;;;;;5.07;2.10;;;;;;;;;;5073905;28;20482;-83
2023/07/23 07:03:25;;;;;;;4.25;2.38;;;;;;;;;;5057016;28;20100;-82
2023/07/23 07:05:50;;;;;;;4.38;2.08;;;;;;;;;;5072722;28;20064;-83
2023/07/23 07:08:16;;;;;;;3.05;2.17;;;;;;;;;;5073648;28;20494;-83
2023/07/23 07:10:41;;;;;;;4.38;2.15;;;;;;;;;;5074792;28;20032;-83
2023/07/23 07:13:06;;;;;;;4.10;2.35;;;;;;;;;;5073525;28;20547;-84
2023/07/23 07:15:32;;;;;;;2.40;1.88;;;;;;;;;;5074669;28;20365;-84
2023/07/23 07:17:57;;;;;;;2.53;1.92;;;;;;;;;;5074826;28;20024;-84
2023/07/23 07:20:23;;;;;;;3.78;2.15;;;;;;;;;;5074821;28;20154;-83
2023/07/23 07:22:48;;;;;;;3.70;2.17;;;;;;;;;;5073395;28;20123;-83
2023/07/23 07:25:14;;;;;;;3.15;2.50;;;;;;;;;;5074291;28;20032;-83
2023/07/23 07:27:39;;;;;;;3.30;2.30;;;;;;;;;;5074483;28;20531;-82
2023/07/23 07:30:05;;;;;;;3.85;2.10;;;;;;;;;;5073267;28;20048;-82
2023/07/23 07:32:31;;;;;;;2.13;1.90;;;;;;;;;;5073270;28;20036;-82
2023/07/23 07:34:56;;;;;;;2.45;2.00;;;;;;;;;;5073204;28;20383;-80
2023/07/23 07:37:22;;;;;;;3.65;2.20;;;;;;;;;;5074036;28;20078;-80
2023/07/23 07:39:47;;;;;;;2.80;2.03;;;;;;;;;;5056065;28;20036;-80
2023/07/23 07:42:13;;;;;;;3.92;1.88;;;;;;;;;;5072872;28;20051;-79
2023/07/23 07:44:38;;;;;;;3.75;2.30;;;;;;;;;;5073974;28;20024;-78
2023/07/23 07:47:04;;;;;;;3.47;2.30;;;;;;;;;;5072783;28;20115;-76
2023/07/23 07:49:29;;;;;;;4.25;2.10;;;;;;;;;;5073056;28;20097;-80
2023/07/23 07:51:54;;;;;;;2.00;1.85;;;;;;;;;;5072825;28;20454;-79
2023/07/23 07:54:20;;;;;;;4.32;2.20;;;;;;;;;;5072702;28;20044;-77
2023/07/23 07:56:45;;;;;;;2.45;2.00;;;;;;;;;;5073741;28;20115;-77
2023/07/23 07:59:11;;;;;;;4.20;2.30;;;;;;;;;;5073740;28;20089;-78
2023/07/23 08:01:36;;;;;;;4.55;2.63;;;;;;;;;;5072637;28;20029;-78
2023/07/23 08:04:03;;;;;;;5.80;2.47;;;;;;;;;;5055858;28;20031;-77
2023/07/23 08:06:29;;;;;;;5.18;2.17;;;;;;;;;;5072393;28;20129;-77
2023/07/23 08:08:57;;;;;;;3.65;2.30;;;;;;;;;;5072609;28;20104;-77
2023/07/23 08:11:24;;;;;;;3.55;2.10;;;;;;;;;;5055535;28;20028;-78
2023/07/23 08:13:50;;;;;;;3.13;2.20;;;;;;;;;;5072306;28;20036;-77
2023/07/23 08:16:17;;;;;;;4.93;2.22;;;;;;;;;;5072258;28;20038;-78
2023/07/23 08:18:44;;;;;;;4.47;1.90;;;;;;;;;;5055450;28;20043;-77
2023/07/23 08:21:10;;;;;;;3.38;2.17;;;;;;;;;;5073855;28;20181;-78
2023/07/23 08:23:36;;;;;;;3.88;2.28;;;;;;;;;;5055499;28;20032;-78
2023/07/23 08:26:02;;;;;;;4.70;1.98;;;;;;;;;;5071839;28;20047;-77
2023/07/23 08:28:29;;;;;;;3.47;2.10;;;;;;;;;;5073351;28;20380;-77
2023/07/23 08:30:57;;;;;;;4.20;2.05;;;;;;;;;;5072093;28;20032;-78
2023/07/23 08:33:30;;;;;;;2.35;1.90;;;;;;;;;;5072027;28;20031;-78
2023/07/23 08:35:57;;;;;;;3.37;1.93;;;;;;;;;;5055694;28;20029;-78
2023/07/23 08:38:24;;;;;;;2.15;1.95;;;;;;;;;;5071961;28;20100;-78
2023/07/23 08:40:57;;;;;;;2.72;2.17;;;;;;;;;;5072170;28;20035;-78
2023/07/23 08:43:52;;;;;;;2.35;1.75;;;;;;;;;;5055894;28;20024;-78
2023/07/23 08:46:21;;;;;;;4.07;1.98;;;;;;;;;;5074117;28;20043;-77
2023/07/23 08:48:56;;;;;;;3.47;1.85;;;;;;;;;;5073812;28;20024;-78
2023/07/23 08:51:24;;;;;;;2.88;1.88;;;;;;;;;;5074100;28;20028;-78
2023/07/23 08:53:50;;;;;;;3.63;2.05;;;;;;;;;;5073673;28;20031;-79
2023/07/23 08:56:17;;;;;;;2.97;2.25;;;;;;;;;;5072406;28;20032;-78
2023/07/23 08:58:43;;;;;;;5.20;1.92;;;;;;;;;;5073774;28;20039;-78
2023/07/23 09:01:09;;;;;;;4.80;2.75;;;;;;;;;;5072458;28;20028;-78
2023/07/23 09:03:35;;;;;;;4.40;2.10;;;;;;;;;;5056101;28;20032;-78
2023/07/23 09:06:00;;;;;;;5.22;3.17;;;;;;;;;;5072391;28;20056;-77
2023/07/23 09:08:25;;;;;;;3.75;2.08;;;;;;;;;;5072857;28;20028;-77
2023/07/23 09:10:51;;;;;;;6.28;2.72;;;;;;;;;;5073513;28;20028;-77
2023/07/23 09:13:16;;;;;;;3.17;2.20;;;;;;;;;;5072149;28;20028;-77
2023/07/23 09:15:43;;;;;;;4.05;2.50;;;;;;;;;;5073710;28;20033;-77
2023/07/23 09:18:08;;;;;;;4.70;2.30;;;;;;;;;;5056053;28;20472;-77
2023/07/23 09:20:34;;;;;;;3.42;2.35;;;;;;;;;;5072318;28;20041;-77
2023/07/23 09:23:07;;;;;;;2.83;2.17;;;;;;;;;;5073645;28;20136;-77
2023/07/23 09:25:32;;;;;;;3.60;2.13;;;;;;;;;;5073310;28;20028;-76
2023/07/23 09:27:58;;;;;;;2.63;2.10;;;;;;;;;;5073537;28;20025;-77
2023/07/23 09:30:25;;;;;;;4.45;2.30;;;;;;;;;;5077668;28;20540;-77
2023/07/23 09:33:06;;;;;;;3.85;2.15;;;;;;;;;;5077555;28;20076;-77
2023/07/23 09:35:31;;;;;;;3.38;2.28;;;;;;;;;;5077817;28;20376;-77
2023/07/23 09:37:58;;;;;;;3.05;1.75;;;;;;;;;;5059573;28;20036;-77
2023/07/23 09:40:37;;;;;;;2.85;2.22;;;;;;;;;;5076320;28;20031;-77
2023/07/23 09:43:02;;;;;;;1.98;1.77;;;;;;;;;;5075922;28;20059;-77
2023/07/23 09:45:37;;;;;;;2.85;2.10;;;;;;;;;;5059421;28;20083;-77
2023/07/23 09:48:03;;;;;;;4.25;2.20;;;;;;;;;;5075824;28;20044;-77
2023/07/23 09:50:29;;;;;;;2.28;1.95;;;;;;;;;;5075882;28;20047;-77
2023/07/23 09:52:54;;;;;;;4.22;1.90;;;;;;;;;;5077204;28;20097;-77
2023/07/23 09:55:20;;;;;;;3.88;2.28;;;;;;;;;;5075597;28;20475;-78
2023/07/23 09:57:50;;;;;;;3.92;2.28;;;;;;;;;;5076814;28;20078;-77
2023/07/23 10:00:16;;;;;;;3.90;2.20;;;;;;;;;;5075752;28;20055;-78
2023/07/23 10:02:42;;;;;;;3.97;1.90;;;;;;;;;;5075571;28;20531;-78
2023/07/23 10:05:10;;;;;;;4.65;2.22;;;;;;;;;;5076852;28;20021;-77
2023/07/23 10:07:38;;;;;;;6.10;2.35;;;;;;;;;;5075466;28;20052;-77
2023/07/23 10:10:04;;;;;;;4.28;2.10;;;;;;;;;;5058689;28;20422;-77
2023/07/23 10:12:29;;;;;;;2.88;1.90;;;;;;;;;;5075352;28;20081;-77
2023/07/23 10:14:55;;;;;;;2.30;1.92;;;;;;;;;;5076716;28;20058;-77
2023/07/23 10:17:21;;;;;;;5.00;2.42;;;;;;;;;;5076387;28;20471;-77
2023/07/23 10:19:47;;;;;;;2.97;2.03;;;;;;;;;;5075410;28;20032;-77
2023/07/23 10:22:12;;;;;;;2.20;2.00;;;;;;;;;;5075452;28;20035;-78
2023/07/23 10:24:39;;;;;;;2.45;2.15;;;;;;;;;;5075127;28;20052;-78
2023/07/23 10:27:12;;;;;;;3.10;2.40;;;;;;;;;;5075576;28;20035;-79
2023/07/23 10:29:38;;;;;;;3.05;2.20;;;;;;;;;;5075678;28;20085;-76
2023/07/23 10:32:36;;;;;;;2.92;2.50;;;;;;;;;;5075497;28;20037;-78
2023/07/23 10:35:02;;;;;;;3.15;2.00;;;;;;;;;;5031883;28;20086;-76
2023/07/23 10:37:27;;;;;;;6.80;2.58;;;;;;;;;;5074681;28;20033;-76
2023/07/23 10:39:58;;;;;;;3.30;2.10;;;;;;;;;;5073805;28;20035;-77
2023/07/23 10:42:35;;;;;;;4.85;2.10;;;;;;;;;;5078236;28;20429;-78
2023/07/23 10:45:22;;;;;;;3.65;2.10;;;;;;;;;;5075437;28;20137;-77
2023/07/23 10:47:51;;;;;;;4.53;1.90;;;;;;;;;;5075260;28;20075;-76
2023/07/23 10:50:17;;;;;;;3.70;2.15;;;;;;;;;;5075287;28;20048;-76
2023/07/23 10:52:44;;;;;;;4.57;1.80;;;;;;;;;;5058878;28;20024;-76
2023/07/23 10:55:09;;;;;;;2.40;2.00;;;;;;;;;;5092026;28;20480;-79
2023/07/23 10:57:42;;;;;;;2.53;1.90;;;;;;;;;;5075603;28;20024;-79
2023/07/23 11:00:28;;;;;;;4.90;1.80;;;;;;;;;;5074745;28;20479;-79
2023/07/23 11:02:53;;;;;;;1.90;1.80;;;;;;;;;;5073965;28;20186;-78
2023/07/23 11:05:20;;;;;;;2.83;1.75;;;;;;;;;;5074564;28;20052;-76
2023/07/23 11:08:18;;;;;;;1.95;1.77;;;;;;;;;;5057917;28;20027;-79
2023/07/23 11:11:00;;;;;;;2.90;1.77;;;;;;;;;;5074600;28;20035;-79
2023/07/23 11:13:27;;;;;;;2.40;1.88;;;;;;;;;;5074276;28;20028;-79
2023/07/23 11:15:54;;;;;;;4.47;1.60;;;;;;;;;;5057783;28;20031;-79
2023/07/23 11:18:20;;;;;;;1.60;1.50;;;;;;;;;;5074104;28;20093;-79
2023/07/23 11:20:50;;;;;;;2.22;1.40;;;;;;;;;;5075740;28;20534;-79
2023/07/23 11:23:17;;;;;;;3.20;1.55;;;;;;;;;;5075622;28;20384;-79
2023/07/23 11:25:49;;;;;;;2.22;1.73;;;;;;;;;;5057729;28;20020;-79
2023/07/23 11:28:16;;;;;;;1.40;1.30;;;;;;;;;;5057217;28;20432;-79
2023/07/23 11:30:42;;;;;;;4.10;1.40;;;;;;;;;;5073951;28;20035;-79
2023/07/23 11:33:08;;;;;;;1.88;1.70;;;;;;;;;;5075705;28;20029;-79
2023/07/23 11:35:34;;;;;;;3.13;1.67;;;;;;;;;;5057354;28;20115;-79
2023/07/23 11:38:02;;;;;;;4.05;1.88;;;;;;;;;;5074876;28;20104;-81
2023/07/23 11:40:28;;;;;;;2.10;1.63;;;;;;;;;;5074835;28;20107;-80
2023/07/23 11:42:53;;;;;;;4.55;1.85;;;;;;;;;;5073772;28;20071;-79
2023/07/23 11:45:19;;;;;;;4.25;1.60;;;;;;;;;;5074659;28;20038;-79
2023/07/23 11:47:52;;;;;;;2.33;1.90;;;;;;;;;;5073606;28;20387;-79
2023/07/23 11:50:19;;;;;;;3.97;1.73;;;;;;;;;;5056686;28;20028;-79
2023/07/23 11:52:49;;;;;;;2.08;1.73;;;;;;;;;;5076212;28;20036;-79
2023/07/23 11:55:23;;;;;;;3.25;2.03;;;;;;;;;;5064901;28;20056;-79
2023/07/23 11:57:53;;;;;;;5.32;1.90;;;;;;;;;;5083931;28;20035;-79
2023/07/23 12:00:35;;;;;;;4.03;1.80;;;;;;;;;;5083425;28;20032;-77
2023/07/23 12:03:02;;;;;;;2.20;1.75;;;;;;;;;;5076896;28;20060;-79
2023/07/23 12:05:27;;;;;;;4.13;1.70;;;;;;;;;;5076422;28;20067;-79
2023/07/23 12:07:53;;;;;;;2.53;1.75;;;;;;;;;;5077616;28;20048;-79
2023/07/23 12:10:19;;;;;;;4.93;2.20;;;;;;;;;;5077171;28;20445;-78
2023/07/23 12:12:46;;;;;;;3.17;1.90;;;;;;;;;;5078328;28;20028;-79
2023/07/23 12:15:31;;;;;;;2.85;1.95;;;;;;;;;;5078479;28;20041;-78
2023/07/23 12:17:57;;;;;;;3.60;1.95;;;;;;;;;;5075909;28;20078;-79
2023/07/23 12:20:24;;;;;;;3.38;1.90;;;;;;;;;;5078146;28;20028;-76
2023/07/23 12:22:53;;;;;;;5.13;2.35;;;;;;;;;;5058453;28;20028;-77
2023/07/23 12:25:19;;;;;;;2.30;2.10;;;;;;;;;;5076993;28;20066;-77
2023/07/23 12:27:45;;;;;;;2.42;1.80;;;;;;;;;;5076258;28;20025;-77
2023/07/23 12:30:10;;;;;;;2.33;1.98;;;;;;;;;;5057770;28;20025;-77
2023/07/23 12:32:36;;;;;;;3.47;2.13;;;;;;;;;;5075820;28;20058;-77
2023/07/23 12:35:01;;;;;;;11.95;2.85;;;;;;;;;;5075505;28;20028;-77
2023/07/23 12:37:27;;;;;;;2.88;2.03;;;;;;;;;;5056558;28;20109;-76
2023/07/23 12:39:54;;;;;;;2.38;1.88;;;;;;;;;;5056524;28;20020;-79
2023/07/23 12:42:20;;;;;;;2.40;2.10;;;;;;;;;;5073370;28;20078;-77
2023/07/23 12:44:45;;;;;;;4.18;2.17;;;;;;;;;;5073486;28;20387;-77
2023/07/23 12:47:11;;;;;;;4.60;2.15;;;;;;;;;;5073240;28;20552;-77
2023/07/23 12:49:36;;;;;;;2.53;2.20;;;;;;;;;;5072652;28;20028;-76
2023/07/23 12:52:03;;;;;;;3.10;2.20;;;;;;;;;;5073022;28;20107;-76
2023/07/23 12:54:29;;;;;;;4.70;2.13;;;;;;;;;;5072760;28;20056;-76
2023/07/23 12:56:55;;;;;;;3.67;2.10;;;;;;;;;;5073029;28;20025;-77
2023/07/23 12:59:21;;;;;;;5.30;2.28;;;;;;;;;;5075820;28;20044;-77
2023/07/23 13:01:47;;;;;;;2.10;1.90;;;;;;;;;;5075263;28;20024;-78
2023/07/23 13:04:12;;;;;;;4.53;2.30;;;;;;;;;;5074074;28;20032;-77
2023/07/23 13:06:38;;;;;;;5.38;1.88;;;;;;;;;;5075225;28;20052;-78
2023/07/23 13:09:03;;;;;;;3.53;2.10;;;;;;;;;;5073989;28;20070;-78
2023/07/23 13:11:29;;;;;;;2.78;2.13;;;;;;;;;;5074154;28;20047;-77
2023/07/23 13:13:54;;;;;;;3.33;2.03;;;;;;;;;;5076221;28;20032;-78
2023/07/23 13:16:20;;;;;;;2.58;1.95;;;;;;;;;;5075659;28;20068;-78
2023/07/23 13:18:45;;;;;;;3.15;2.10;;;;;;;;;;5077316;28;20032;-77
2023/07/23 13:21:11;;;;;;;3.65;1.98;;;;;;;;;;5076123;28;20032;-76
2023/07/23 13:23:36;;;;;;;1.98;1.75;;;;;;;;;;5077301;28;20158;-78
2023/07/23 13:26:01;;;;;;;3.17;1.92;;;;;;;;;;5074333;28;20027;-78
2023/07/23 13:28:27;;;;;;;4.53;2.22;;;;;;;;;;5073813;28;20090;-77
2023/07/23 13:30:54;;;;;;;3.55;2.25;;;;;;;;;;5073276;28;20035;-78
2023/07/23 13:33:19;;;;;;;3.38;2.17;;;;;;;;;;5073589;28;20028;-77
2023/07/23 13:35:44;;;;;;;2.47;1.90;;;;;;;;;;5074165;28;20036;-77
2023/07/23 13:38:10;;;;;;;2.30;2.08;;;;;;;;;;5073159;28;20103;-77
2023/07/23 13:40:37;;;;;;;2.80;2.10;;;;;;;;;;5076097;28;20081;-77
2023/07/23 13:43:02;;;;;;;2.60;2.20;;;;;;;;;;5072511;28;20024;-77
2023/07/23 13:45:28;;;;;;;3.80;2.10;;;;;;;;;;5073934;28;20479;-76
2023/07/23 13:47:53;;;;;;;3.72;2.25;;;;;;;;;;5073734;28;20024;-77
2023/07/23 13:50:19;;;;;;;4.78;2.83;;;;;;;;;;5072793;28;20124;-77
2023/07/23 13:52:44;;;;;;;3.13;2.20;;;;;;;;;;5072089;28;20052;-77
2023/07/23 13:55:09;;;;;;;5.63;2.25;;;;;;;;;;5072266;28;20090;-78
2023/07/23 13:57:35;;;;;;;2.78;2.22;;;;;;;;;;5072974;28;20032;-77
2023/07/23 14:00:03;;;;;;;4.80;2.50;;;;;;;;;;5073465;28;20036;-78
2023/07/23 14:02:29;;;;;;;5.35;2.30;;;;;;;;;;5072169;28;20028;-78
2023/07/23 14:04:54;;;;;;;4.05;2.28;;;;;;;;;;5073239;28;20028;-78
2023/07/23 14:07:20;;;;;;;6.20;2.10;;;;;;;;;;5072040;28;20177;-78
2023/07/23 14:09:45;;;;;;;3.38;2.42;;;;;;;;;;5073697;28;20089;-78
2023/07/23 14:12:10;;;;;;;3.17;2.40;;;;;;;;;;5054806;28;20044;-78
2023/07/23 14:14:36;;;;;;;2.70;2.15;;;;;;;;;;5073983;28;20054;-78
2023/07/23 14:17:02;;;;;;;5.70;2.20;;;;;;;;;;5076984;28;20103;-78
2023/07/23 14:19:27;;;;;;;2.80;2.10;;;;;;;;;;5075371;28;20048;-77
2023/07/23 14:21:53;;;;;;;2.67;2.10;;;;;;;;;;5076692;28;20051;-78
2023/07/23 14:24:20;;;;;;;5.35;2.25;;;;;;;;;;5058470;28;20032;-78
2023/07/23 14:26:46;;;;;;;5.88;2.30;;;;;;;;;;5042449;28;20033;-77
2023/07/23 14:29:11;;;;;;;2.85;2.05;;;;;;;;;;5076718;28;20480;-78
2023/07/23 14:31:36;;;;;;;4.57;2.10;;;;;;;;;;5076570;28;20033;-78
2023/07/23 14:34:02;;;;;;;3.03;2.20;;;;;;;;;;5075316;28;20093;-78
2023/07/23 14:36:27;;;;;;;2.10;1.88;;;;;;;;;;5076156;28;20039;-78
2023/07/23 14:38:53;;;;;;;2.05;1.75;;;;;;;;;;5058248;28;20028;-78